sensor_id;sensor_type;location;lat;lon;timestamp;temperature;humidity
17200;DHT22;8716;52.268;20.968;2024-01-07T00:00:16;-3.30;99.90
17200;DHT22;8716;52.268;20.968;2024-01-07T00:02:45;-3.30;99.90
17200;DHT22;8716;52.268;20.968;2024-01-07T00:05:13;-3.30;99.90
17200;DHT22;8716;52.268;20.968;2024-01-07T00:07:42;-3.30;99.90
17200;DHT22;8716;52.268;20.968;2024-01-07T00:10:13;-3.30;99.90
17200;DHT22;8716;52.268;20.968;2024-01-07T00:12:45;-3.30;99.90
17200;DHT22;8716;52.268;20.968;2024-01-07T00:15:15;-3.40;99.90
17200;DHT22;8716;52.268;20.968;2024-01-07T00:17:43;-3.40;99.90
17200;DHT22;8716;52.268;20.968;2024-01-07T00:20:11;-3.40;99.90
17200;DHT22;8716;52.268;20.968;2024-01-07T00:22:40;-3.50;99.90
17200;DHT22;8716;52.268;20.968;2024-01-07T00:25:08;-3.50;99.90
17200;DHT22;8716;52.268;20.968;2024-01-07T00:27:36;-3.50;99.90
17200;DHT22;8716;52.268;20.968;2024-01-07T00:30:07;-3.50;99.90
17200;DHT22;8716;52.268;20.968;2024-01-07T00:32:37;-3.50;99.90
17200;DHT22;8716;52.268;20.968;2024-01-07T00:35:06;-3.50;99.90
17200;DHT22;8716;52.268;20.968;2024-01-07T00:37:35;-3.50;99.90
17200;DHT22;8716;52.268;20.968;2024-01-07T00:40:05;-3.50;99.90
17200;DHT22;8716;52.268;20.968;2024-01-07T00:42:34;-3.60;99.90
17200;DHT22;8716;52.268;20.968;2024-01-07T00:45:03;-3.60;99.90
17200;DHT22;8716;52.268;20.968;2024-01-07T00:47:33;-3.60;99.90
17200;DHT22;8716;52.268;20.968;2024-01-07T00:50:01;-3.70;99.90
17200;DHT22;8716;52.268;20.968;2024-01-07T00:52:29;-3.60;99.90
17200;DHT22;8716;52.268;20.968;2024-01-07T00:54:58;-3.70;99.90
17200;DHT22;8716;52.268;20.968;2024-01-07T00:57:27;-3.60;99.90
17200;DHT22;8716;52.268;20.968;2024-01-07T00:59:55;-3.60;99.90
17200;DHT22;8716;52.268;20.968;2024-01-07T01:02:25;-3.60;99.90
17200;DHT22;8716;52.268;20.968;2024-01-07T01:04:54;-3.60;99.90
17200;DHT22;8716;52.268;20.968;2024-01-07T01:07:23;-3.60;99.90
17200;DHT22;8716;52.268;20.968;2024-01-07T01:09:52;-3.60;99.90
17200;DHT22;8716;52.268;20.968;2024-01-07T01:12:20;-3.60;99.90
17200;DHT22;8716;52.268;20.968;2024-01-07T01:14:49;-3.60;99.90
17200;DHT22;8716;52.268;20.968;2024-01-07T01:17:18;-3.60;99.90
17200;DHT22;8716;52.268;20.968;2024-01-07T01:19:46;-3.60;99.90
17200;DHT22;8716;52.268;20.968;2024-01-07T01:22:17;-3.60;99.90
17200;DHT22;8716;52.268;20.968;2024-01-07T01:24:48;-3.60;99.90
17200;DHT22;8716;52.268;20.968;2024-01-07T01:27:18;-3.60;99.90
17200;DHT22;8716;52.268;20.968;2024-01-07T01:29:46;-3.60;99.90
17200;DHT22;8716;52.268;20.968;2024-01-07T01:32:14;-3.50;99.90
17200;DHT22;8716;52.268;20.968;2024-01-07T01:34:43;-3.50;99.90
17200;DHT22;8716;52.268;20.968;2024-01-07T01:37:11;-3.50;99.90
17200;DHT22;8716;52.268;20.968;2024-01-07T01:39:41;-3.50;99.90
17200;DHT22;8716;52.268;20.968;2024-01-07T01:42:09;-3.50;99.90
17200;DHT22;8716;52.268;20.968;2024-01-07T01:44:37;-3.40;99.90
17200;DHT22;8716;52.268;20.968;2024-01-07T01:47:06;-3.40;99.90
17200;DHT22;8716;52.268;20.968;2024-01-07T01:49:35;-3.50;99.90
17200;DHT22;8716;52.268;20.968;2024-01-07T01:52:07;-3.50;99.90
17200;DHT22;8716;52.268;20.968;2024-01-07T01:54:36;-3.50;99.90
17200;DHT22;8716;52.268;20.968;2024-01-07T01:57:08;-3.50;99.90
17200;DHT22;8716;52.268;20.968;2024-01-07T01:59:37;-3.40;99.90
17200;DHT22;8716;52.268;20.968;2024-01-07T02:02:05;-3.40;99.90
17200;DHT22;8716;52.268;20.968;2024-01-07T02:04:33;-3.40;99.90
17200;DHT22;8716;52.268;20.968;2024-01-07T02:07:02;-3.40;99.90
17200;DHT22;8716;52.268;20.968;2024-01-07T02:09:32;-3.50;99.90
17200;DHT22;8716;52.268;20.968;2024-01-07T02:12:00;-3.50;99.90
17200;DHT22;8716;52.268;20.968;2024-01-07T02:14:31;-3.40;99.90
17200;DHT22;8716;52.268;20.968;2024-01-07T02:17:02;-3.50;99.90
17200;DHT22;8716;52.268;20.968;2024-01-07T02:19:30;-3.50;99.90
17200;DHT22;8716;52.268;20.968;2024-01-07T02:21:59;-3.50;99.90
17200;DHT22;8716;52.268;20.968;2024-01-07T02:24:29;-3.50;99.90
17200;DHT22;8716;52.268;20.968;2024-01-07T02:26:59;-3.50;99.90
17200;DHT22;8716;52.268;20.968;2024-01-07T02:29:29;-3.50;99.90
17200;DHT22;8716;52.268;20.968;2024-01-07T02:31:57;-3.50;99.90
17200;DHT22;8716;52.268;20.968;2024-01-07T02:34:26;-3.40;99.90
17200;DHT22;8716;52.268;20.968;2024-01-07T02:36:54;-3.50;99.90
17200;DHT22;8716;52.268;20.968;2024-01-07T02:39:23;-3.50;99.90
17200;DHT22;8716;52.268;20.968;2024-01-07T02:41:58;-3.50;99.90
17200;DHT22;8716;52.268;20.968;2024-01-07T02:44:28;-3.50;99.90
17200;DHT22;8716;52.268;20.968;2024-01-07T02:46:57;-3.60;99.90
17200;DHT22;8716;52.268;20.968;2024-01-07T02:49:27;-3.60;99.90
17200;DHT22;8716;52.268;20.968;2024-01-07T02:51:56;-3.60;99.90
17200;DHT22;8716;52.268;20.968;2024-01-07T02:54:24;-3.60;99.90
17200;DHT22;8716;52.268;20.968;2024-01-07T02:56:53;-3.60;99.90
17200;DHT22;8716;52.268;20.968;2024-01-07T02:59:24;-3.70;99.90
17200;DHT22;8716;52.268;20.968;2024-01-07T03:01:53;-3.70;99.90
17200;DHT22;8716;52.268;20.968;2024-01-07T03:04:23;-3.80;99.90
17200;DHT22;8716;52.268;20.968;2024-01-07T03:06:54;-3.80;99.90
17200;DHT22;8716;52.268;20.968;2024-01-07T03:09:22;-3.80;99.90
17200;DHT22;8716;52.268;20.968;2024-01-07T03:11:50;-3.80;99.90
17200;DHT22;8716;52.268;20.968;2024-01-07T03:14:19;-3.80;99.90
17200;DHT22;8716;52.268;20.968;2024-01-07T03:16:49;-3.80;99.90
17200;DHT22;8716;52.268;20.968;2024-01-07T03:19:18;-3.90;99.90
17200;DHT22;8716;52.268;20.968;2024-01-07T03:21:48;-3.90;99.90
17200;DHT22;8716;52.268;20.968;2024-01-07T03:24:16;-3.90;99.90
17200;DHT22;8716;52.268;20.968;2024-01-07T03:26:45;-3.90;99.90
17200;DHT22;8716;52.268;20.968;2024-01-07T03:29:13;-3.90;99.90
17200;DHT22;8716;52.268;20.968;2024-01-07T03:31:41;-4.00;99.90
17200;DHT22;8716;52.268;20.968;2024-01-07T03:34:11;-4.00;99.90
17200;DHT22;8716;52.268;20.968;2024-01-07T03:36:39;-4.00;99.90
17200;DHT22;8716;52.268;20.968;2024-01-07T03:39:10;-4.00;99.90
17200;DHT22;8716;52.268;20.968;2024-01-07T03:41:38;-4.00;99.90
17200;DHT22;8716;52.268;20.968;2024-01-07T03:44:07;-4.00;99.90
17200;DHT22;8716;52.268;20.968;2024-01-07T03:46:35;-4.10;99.90
17200;DHT22;8716;52.268;20.968;2024-01-07T03:49:03;-4.10;99.90
17200;DHT22;8716;52.268;20.968;2024-01-07T03:51:33;-4.10;99.90
17200;DHT22;8716;52.268;20.968;2024-01-07T03:54:01;-4.10;99.90
17200;DHT22;8716;52.268;20.968;2024-01-07T03:56:30;-4.10;99.90
17200;DHT22;8716;52.268;20.968;2024-01-07T03:58:58;-4.10;99.90
17200;DHT22;8716;52.268;20.968;2024-01-07T04:01:26;-4.10;99.90
17200;DHT22;8716;52.268;20.968;2024-01-07T04:03:55;-4.20;99.90
17200;DHT22;8716;52.268;20.968;2024-01-07T04:06:24;-4.20;99.90
17200;DHT22;8716;52.268;20.968;2024-01-07T04:08:56;-4.20;99.90
17200;DHT22;8716;52.268;20.968;2024-01-07T04:11:24;-4.20;99.90
17200;DHT22;8716;52.268;20.968;2024-01-07T04:13:53;-4.20;99.90
17200;DHT22;8716;52.268;20.968;2024-01-07T04:16:21;-4.20;99.90
17200;DHT22;8716;52.268;20.968;2024-01-07T04:18:49;-4.10;99.90
17200;DHT22;8716;52.268;20.968;2024-01-07T04:21:20;-4.20;99.90
17200;DHT22;8716;52.268;20.968;2024-01-07T04:23:49;-4.20;99.90
17200;DHT22;8716;52.268;20.968;2024-01-07T04:26:18;-4.20;99.90
17200;DHT22;8716;52.268;20.968;2024-01-07T04:28:46;-4.20;99.90
17200;DHT22;8716;52.268;20.968;2024-01-07T04:31:15;-4.20;99.90
17200;DHT22;8716;52.268;20.968;2024-01-07T04:33:44;-4.20;99.90
17200;DHT22;8716;52.268;20.968;2024-01-07T04:36:13;-4.20;99.90
17200;DHT22;8716;52.268;20.968;2024-01-07T04:38:41;-4.30;99.90
17200;DHT22;8716;52.268;20.968;2024-01-07T04:41:09;-4.20;99.90
17200;DHT22;8716;52.268;20.968;2024-01-07T04:43:39;-4.20;99.90
17200;DHT22;8716;52.268;20.968;2024-01-07T04:46:07;-4.20;99.90
17200;DHT22;8716;52.268;20.968;2024-01-07T04:48:37;-4.20;99.90
17200;DHT22;8716;52.268;20.968;2024-01-07T04:51:07;-4.20;99.90
17200;DHT22;8716;52.268;20.968;2024-01-07T04:53:36;-4.20;99.90
17200;DHT22;8716;52.268;20.968;2024-01-07T04:56:04;-4.30;99.90
17200;DHT22;8716;52.268;20.968;2024-01-07T04:58:33;-4.30;99.90
17200;DHT22;8716;52.268;20.968;2024-01-07T05:01:02;-4.20;99.90
17200;DHT22;8716;52.268;20.968;2024-01-07T05:03:31;-4.20;99.90
17200;DHT22;8716;52.268;20.968;2024-01-07T05:06:01;-4.20;99.90
17200;DHT22;8716;52.268;20.968;2024-01-07T05:08:30;-4.20;99.90
17200;DHT22;8716;52.268;20.968;2024-01-07T05:10:59;-4.20;99.90
17200;DHT22;8716;52.268;20.968;2024-01-07T05:13:29;-4.20;99.90
17200;DHT22;8716;52.268;20.968;2024-01-07T05:15:58;-4.20;99.90
17200;DHT22;8716;52.268;20.968;2024-01-07T05:18:29;-4.30;99.90
17200;DHT22;8716;52.268;20.968;2024-01-07T05:20:57;-4.30;99.90
17200;DHT22;8716;52.268;20.968;2024-01-07T05:23:28;-4.30;99.90
17200;DHT22;8716;52.268;20.968;2024-01-07T05:25:56;-4.30;99.90
17200;DHT22;8716;52.268;20.968;2024-01-07T05:28:27;-4.30;99.90
17200;DHT22;8716;52.268;20.968;2024-01-07T05:30:56;-4.30;99.90
17200;DHT22;8716;52.268;20.968;2024-01-07T05:33:24;-4.40;99.90
17200;DHT22;8716;52.268;20.968;2024-01-07T05:35:54;-4.40;99.90
17200;DHT22;8716;52.268;20.968;2024-01-07T05:38:22;-4.40;99.90
17200;DHT22;8716;52.268;20.968;2024-01-07T05:40:51;-4.40;99.90
17200;DHT22;8716;52.268;20.968;2024-01-07T05:43:19;-4.40;99.90
17200;DHT22;8716;52.268;20.968;2024-01-07T05:45:47;-4.50;99.90
17200;DHT22;8716;52.268;20.968;2024-01-07T05:48:15;-4.40;99.90
17200;DHT22;8716;52.268;20.968;2024-01-07T05:50:44;-4.40;99.90
17200;DHT22;8716;52.268;20.968;2024-01-07T05:53:13;-4.40;99.90
17200;DHT22;8716;52.268;20.968;2024-01-07T05:55:42;-4.40;99.90
17200;DHT22;8716;52.268;20.968;2024-01-07T05:58:10;-4.50;99.90
17200;DHT22;8716;52.268;20.968;2024-01-07T06:00:38;-4.50;99.90
17200;DHT22;8716;52.268;20.968;2024-01-07T06:03:07;-4.50;99.90
17200;DHT22;8716;52.268;20.968;2024-01-07T06:05:38;-4.50;99.90
17200;DHT22;8716;52.268;20.968;2024-01-07T06:08:07;-4.50;99.90
17200;DHT22;8716;52.268;20.968;2024-01-07T06:10:37;-4.50;99.90
17200;DHT22;8716;52.268;20.968;2024-01-07T06:13:05;-4.40;99.90
17200;DHT22;8716;52.268;20.968;2024-01-07T06:15:33;-4.40;99.90
17200;DHT22;8716;52.268;20.968;2024-01-07T06:18:04;-4.40;99.90
17200;DHT22;8716;52.268;20.968;2024-01-07T06:20:33;-4.40;99.90
17200;DHT22;8716;52.268;20.968;2024-01-07T06:23:01;-4.50;99.90
17200;DHT22;8716;52.268;20.968;2024-01-07T06:25:28;-4.50;99.90
17200;DHT22;8716;52.268;20.968;2024-01-07T06:27:58;-4.40;99.90
17200;DHT22;8716;52.268;20.968;2024-01-07T06:30:26;-4.50;99.90
17200;DHT22;8716;52.268;20.968;2024-01-07T06:32:55;-4.50;99.90
17200;DHT22;8716;52.268;20.968;2024-01-07T06:35:24;-4.40;99.90
17200;DHT22;8716;52.268;20.968;2024-01-07T06:37:52;-4.40;99.90
17200;DHT22;8716;52.268;20.968;2024-01-07T06:40:20;-4.40;99.90
17200;DHT22;8716;52.268;20.968;2024-01-07T06:42:49;-4.50;99.90
17200;DHT22;8716;52.268;20.968;2024-01-07T06:45:19;-4.50;99.90
17200;DHT22;8716;52.268;20.968;2024-01-07T06:47:47;-4.50;99.90
17200;DHT22;8716;52.268;20.968;2024-01-07T06:50:16;-4.50;99.90
17200;DHT22;8716;52.268;20.968;2024-01-07T06:52:46;-4.50;99.90
17200;DHT22;8716;52.268;20.968;2024-01-07T06:55:15;-4.40;99.90
17200;DHT22;8716;52.268;20.968;2024-01-07T06:57:44;-4.40;99.90
17200;DHT22;8716;52.268;20.968;2024-01-07T07:00:13;-4.40;99.90
17200;DHT22;8716;52.268;20.968;2024-01-07T07:02:44;-4.40;99.90
17200;DHT22;8716;52.268;20.968;2024-01-07T07:05:13;-4.30;99.90
17200;DHT22;8716;52.268;20.968;2024-01-07T07:07:52;-4.30;99.90
17200;DHT22;8716;52.268;20.968;2024-01-07T07:10:24;-4.40;99.90
17200;DHT22;8716;52.268;20.968;2024-01-07T07:12:53;-4.40;99.90
17200;DHT22;8716;52.268;20.968;2024-01-07T07:15:23;-4.40;99.90
17200;DHT22;8716;52.268;20.968;2024-01-07T07:17:55;-4.40;99.90
17200;DHT22;8716;52.268;20.968;2024-01-07T07:20:24;-4.30;99.90
17200;DHT22;8716;52.268;20.968;2024-01-07T07:22:57;-4.30;99.90
17200;DHT22;8716;52.268;20.968;2024-01-07T07:25:25;-4.30;99.90
17200;DHT22;8716;52.268;20.968;2024-01-07T07:27:54;-4.30;99.90
17200;DHT22;8716;52.268;20.968;2024-01-07T07:30:31;-4.30;99.90
17200;DHT22;8716;52.268;20.968;2024-01-07T07:33:02;-4.30;99.90
17200;DHT22;8716;52.268;20.968;2024-01-07T07:35:31;-4.40;99.90
17200;DHT22;8716;52.268;20.968;2024-01-07T07:37:59;-4.30;99.90
17200;DHT22;8716;52.268;20.968;2024-01-07T07:40:27;-4.30;99.90
17200;DHT22;8716;52.268;20.968;2024-01-07T07:42:58;-4.20;99.90
17200;DHT22;8716;52.268;20.968;2024-01-07T07:45:35;-4.20;99.90
17200;DHT22;8716;52.268;20.968;2024-01-07T07:48:06;-4.30;99.90
17200;DHT22;8716;52.268;20.968;2024-01-07T07:50:35;-4.20;99.90
17200;DHT22;8716;52.268;20.968;2024-01-07T07:53:07;-4.20;99.90
17200;DHT22;8716;52.268;20.968;2024-01-07T07:55:35;-4.10;99.90
17200;DHT22;8716;52.268;20.968;2024-01-07T07:58:10;-4.00;99.90
17200;DHT22;8716;52.268;20.968;2024-01-07T08:00:39;-4.00;99.90
17200;DHT22;8716;52.268;20.968;2024-01-07T08:03:08;-3.90;99.90
17200;DHT22;8716;52.268;20.968;2024-01-07T08:05:37;-3.90;99.90
17200;DHT22;8716;52.268;20.968;2024-01-07T08:08:09;-3.80;99.90
17200;DHT22;8716;52.268;20.968;2024-01-07T08:10:37;-3.80;99.90
17200;DHT22;8716;52.268;20.968;2024-01-07T08:13:05;-3.90;99.90
17200;DHT22;8716;52.268;20.968;2024-01-07T08:15:35;-3.90;99.90
17200;DHT22;8716;52.268;20.968;2024-01-07T08:18:05;-3.90;99.90
17200;DHT22;8716;52.268;20.968;2024-01-07T08:20:35;-3.90;99.90
17200;DHT22;8716;52.268;20.968;2024-01-07T08:23:04;-3.80;99.90
17200;DHT22;8716;52.268;20.968;2024-01-07T08:25:35;-3.80;99.90
17200;DHT22;8716;52.268;20.968;2024-01-07T08:28:03;-3.80;99.90
17200;DHT22;8716;52.268;20.968;2024-01-07T08:30:31;-3.70;99.90
17200;DHT22;8716;52.268;20.968;2024-01-07T08:33:00;-3.60;99.90
17200;DHT22;8716;52.268;20.968;2024-01-07T08:35:28;-3.40;99.90
17200;DHT22;8716;52.268;20.968;2024-01-07T08:37:58;-3.40;99.90
17200;DHT22;8716;52.268;20.968;2024-01-07T08:40:26;-3.40;99.90
17200;DHT22;8716;52.268;20.968;2024-01-07T08:42:56;-3.40;99.90
17200;DHT22;8716;52.268;20.968;2024-01-07T08:45:24;-3.50;99.90
17200;DHT22;8716;52.268;20.968;2024-01-07T08:47:52;-3.50;99.90
17200;DHT22;8716;52.268;20.968;2024-01-07T08:50:21;-3.50;99.90
17200;DHT22;8716;52.268;20.968;2024-01-07T08:52:49;-3.50;99.90
17200;DHT22;8716;52.268;20.968;2024-01-07T08:55:19;-3.50;99.90
17200;DHT22;8716;52.268;20.968;2024-01-07T08:57:47;-3.40;99.90
17200;DHT22;8716;52.268;20.968;2024-01-07T09:00:16;-3.40;99.90
17200;DHT22;8716;52.268;20.968;2024-01-07T09:02:45;-3.40;99.90
17200;DHT22;8716;52.268;20.968;2024-01-07T09:05:14;-3.40;99.90
17200;DHT22;8716;52.268;20.968;2024-01-07T09:07:42;-3.50;99.90
17200;DHT22;8716;52.268;20.968;2024-01-07T09:10:10;-3.40;99.90
17200;DHT22;8716;52.268;20.968;2024-01-07T09:12:41;-3.40;99.90
17200;DHT22;8716;52.268;20.968;2024-01-07T09:15:10;-3.30;99.90
17200;DHT22;8716;52.268;20.968;2024-01-07T09:17:38;-3.30;99.90
17200;DHT22;8716;52.268;20.968;2024-01-07T09:20:08;-3.40;99.90
17200;DHT22;8716;52.268;20.968;2024-01-07T09:22:37;-3.40;99.90
17200;DHT22;8716;52.268;20.968;2024-01-07T09:25:07;-3.30;99.90
17200;DHT22;8716;52.268;20.968;2024-01-07T09:27:35;-3.30;99.90
17200;DHT22;8716;52.268;20.968;2024-01-07T09:30:06;-3.30;99.90
17200;DHT22;8716;52.268;20.968;2024-01-07T09:32:38;-3.30;99.90
17200;DHT22;8716;52.268;20.968;2024-01-07T09:35:06;-3.30;99.90
17200;DHT22;8716;52.268;20.968;2024-01-07T09:37:35;-3.20;99.90
17200;DHT22;8716;52.268;20.968;2024-01-07T09:40:04;-3.20;99.90
17200;DHT22;8716;52.268;20.968;2024-01-07T09:42:34;-3.20;99.90
17200;DHT22;8716;52.268;20.968;2024-01-07T09:45:05;-3.20;99.90
17200;DHT22;8716;52.268;20.968;2024-01-07T09:47:35;-3.10;99.90
17200;DHT22;8716;52.268;20.968;2024-01-07T09:50:03;-3.20;99.90
17200;DHT22;8716;52.268;20.968;2024-01-07T09:52:33;-3.20;99.90
17200;DHT22;8716;52.268;20.968;2024-01-07T09:55:03;-3.20;99.90
17200;DHT22;8716;52.268;20.968;2024-01-07T09:57:33;-3.30;99.90
17200;DHT22;8716;52.268;20.968;2024-01-07T10:00:02;-3.30;99.90
17200;DHT22;8716;52.268;20.968;2024-01-07T10:02:39;-3.30;99.90
17200;DHT22;8716;52.268;20.968;2024-01-07T10:05:09;-3.30;99.90
17200;DHT22;8716;52.268;20.968;2024-01-07T10:07:37;-3.30;99.90
17200;DHT22;8716;52.268;20.968;2024-01-07T10:10:15;-3.20;99.90
17200;DHT22;8716;52.268;20.968;2024-01-07T10:12:44;-3.20;99.90
17200;DHT22;8716;52.268;20.968;2024-01-07T10:15:14;-3.30;99.90
17200;DHT22;8716;52.268;20.968;2024-01-07T10:17:44;-3.30;99.90
17200;DHT22;8716;52.268;20.968;2024-01-07T10:20:13;-3.30;99.90
17200;DHT22;8716;52.268;20.968;2024-01-07T10:22:46;-3.30;99.90
17200;DHT22;8716;52.268;20.968;2024-01-07T10:25:15;-3.30;99.90
17200;DHT22;8716;52.268;20.968;2024-01-07T10:27:44;-3.40;99.90
17200;DHT22;8716;52.268;20.968;2024-01-07T10:30:13;-3.40;99.90
17200;DHT22;8716;52.268;20.968;2024-01-07T10:32:46;-3.40;99.90
17200;DHT22;8716;52.268;20.968;2024-01-07T10:35:18;-3.30;99.90
17200;DHT22;8716;52.268;20.968;2024-01-07T10:37:48;-3.20;99.90
17200;DHT22;8716;52.268;20.968;2024-01-07T10:40:17;-3.20;99.90
17200;DHT22;8716;52.268;20.968;2024-01-07T10:42:46;-3.30;99.90
17200;DHT22;8716;52.268;20.968;2024-01-07T10:45:16;-3.30;99.90
17200;DHT22;8716;52.268;20.968;2024-01-07T10:47:48;-3.40;99.90
17200;DHT22;8716;52.268;20.968;2024-01-07T10:50:21;-3.40;99.90
17200;DHT22;8716;52.268;20.968;2024-01-07T10:52:52;-3.40;99.90
17200;DHT22;8716;52.268;20.968;2024-01-07T10:55:26;-3.40;99.90
17200;DHT22;8716;52.268;20.968;2024-01-07T10:58:00;-3.30;99.90
17200;DHT22;8716;52.268;20.968;2024-01-07T11:00:29;-3.20;99.90
17200;DHT22;8716;52.268;20.968;2024-01-07T11:03:04;-3.20;99.90
17200;DHT22;8716;52.268;20.968;2024-01-07T11:05:42;-3.30;99.90
17200;DHT22;8716;52.268;20.968;2024-01-07T11:08:17;-3.30;99.90
17200;DHT22;8716;52.268;20.968;2024-01-07T11:10:50;-3.40;99.90
17200;DHT22;8716;52.268;20.968;2024-01-07T11:13:32;-3.30;99.90
17200;DHT22;8716;52.268;20.968;2024-01-07T11:16:02;-3.30;99.90
17200;DHT22;8716;52.268;20.968;2024-01-07T11:18:32;-3.30;99.90
17200;DHT22;8716;52.268;20.968;2024-01-07T11:21:03;-3.40;99.90
17200;DHT22;8716;52.268;20.968;2024-01-07T11:23:33;-3.40;99.90
17200;DHT22;8716;52.268;20.968;2024-01-07T11:26:05;-3.40;99.90
17200;DHT22;8716;52.268;20.968;2024-01-07T11:28:46;-3.40;99.90
17200;DHT22;8716;52.268;20.968;2024-01-07T11:31:16;-3.30;99.90
17200;DHT22;8716;52.268;20.968;2024-01-07T11:33:47;-3.30;99.90
17200;DHT22;8716;52.268;20.968;2024-01-07T11:36:17;-3.30;99.90
17200;DHT22;8716;52.268;20.968;2024-01-07T11:38:47;-3.20;99.90
17200;DHT22;8716;52.268;20.968;2024-01-07T11:41:21;-3.20;99.90
17200;DHT22;8716;52.268;20.968;2024-01-07T11:43:54;-3.30;99.90
17200;DHT22;8716;52.268;20.968;2024-01-07T11:46:22;-3.20;99.90
17200;DHT22;8716;52.268;20.968;2024-01-07T11:48:55;-3.20;99.90
17200;DHT22;8716;52.268;20.968;2024-01-07T11:51:26;-3.20;99.90
17200;DHT22;8716;52.268;20.968;2024-01-07T11:53:55;-3.20;99.90
17200;DHT22;8716;52.268;20.968;2024-01-07T11:56:24;-3.10;99.90
17200;DHT22;8716;52.268;20.968;2024-01-07T11:58:53;-3.20;99.90
17200;DHT22;8716;52.268;20.968;2024-01-07T12:01:23;-3.30;99.90
17200;DHT22;8716;52.268;20.968;2024-01-07T12:03:57;-3.30;99.90
17200;DHT22;8716;52.268;20.968;2024-01-07T12:06:25;-3.30;99.90
17200;DHT22;8716;52.268;20.968;2024-01-07T12:08:54;-3.30;99.90
17200;DHT22;8716;52.268;20.968;2024-01-07T12:11:23;-3.30;99.90
17200;DHT22;8716;52.268;20.968;2024-01-07T12:13:51;-3.30;99.90
17200;DHT22;8716;52.268;20.968;2024-01-07T12:16:20;-3.30;99.90
17200;DHT22;8716;52.268;20.968;2024-01-07T12:18:48;-3.30;99.90
17200;DHT22;8716;52.268;20.968;2024-01-07T12:21:20;-3.30;99.90
17200;DHT22;8716;52.268;20.968;2024-01-07T12:23:50;-3.30;99.90
17200;DHT22;8716;52.268;20.968;2024-01-07T12:26:19;-3.40;99.90
17200;DHT22;8716;52.268;20.968;2024-01-07T12:28:52;-3.40;99.90
17200;DHT22;8716;52.268;20.968;2024-01-07T12:31:21;-3.40;99.90
17200;DHT22;8716;52.268;20.968;2024-01-07T12:33:51;-3.30;99.90
17200;DHT22;8716;52.268;20.968;2024-01-07T12:36:22;-3.20;99.90
17200;DHT22;8716;52.268;20.968;2024-01-07T12:38:53;-3.20;99.90
17200;DHT22;8716;52.268;20.968;2024-01-07T12:41:22;-3.10;99.90
17200;DHT22;8716;52.268;20.968;2024-01-07T12:43:51;-3.10;99.90
17200;DHT22;8716;52.268;20.968;2024-01-07T12:46:19;-3.10;99.90
17200;DHT22;8716;52.268;20.968;2024-01-07T12:48:48;-3.20;99.90
17200;DHT22;8716;52.268;20.968;2024-01-07T12:51:17;-3.20;99.90
17200;DHT22;8716;52.268;20.968;2024-01-07T12:53:50;-3.30;99.90
17200;DHT22;8716;52.268;20.968;2024-01-07T12:56:18;-3.30;99.90
17200;DHT22;8716;52.268;20.968;2024-01-07T12:58:47;-3.30;99.90
17200;DHT22;8716;52.268;20.968;2024-01-07T13:01:15;-3.30;99.90
17200;DHT22;8716;52.268;20.968;2024-01-07T13:03:44;-3.30;99.90
17200;DHT22;8716;52.268;20.968;2024-01-07T13:06:12;-3.40;99.90
17200;DHT22;8716;52.268;20.968;2024-01-07T13:08:43;-3.30;99.90
17200;DHT22;8716;52.268;20.968;2024-01-07T13:11:13;-3.40;99.90
17200;DHT22;8716;52.268;20.968;2024-01-07T13:13:44;-3.50;99.90
17200;DHT22;8716;52.268;20.968;2024-01-07T13:16:12;-3.50;99.90
17200;DHT22;8716;52.268;20.968;2024-01-07T13:18:41;-3.50;99.90
17200;DHT22;8716;52.268;20.968;2024-01-07T13:21:09;-3.50;99.90
17200;DHT22;8716;52.268;20.968;2024-01-07T13:23:37;-3.50;99.90
17200;DHT22;8716;52.268;20.968;2024-01-07T13:26:08;-3.50;99.90
17200;DHT22;8716;52.268;20.968;2024-01-07T13:28:38;-3.50;99.90
17200;DHT22;8716;52.268;20.968;2024-01-07T13:31:07;-3.60;99.90
17200;DHT22;8716;52.268;20.968;2024-01-07T13:33:36;-3.70;99.90
17200;DHT22;8716;52.268;20.968;2024-01-07T13:36:05;-3.60;99.90
17200;DHT22;8716;52.268;20.968;2024-01-07T13:38:36;-3.70;99.90
17200;DHT22;8716;52.268;20.968;2024-01-07T13:41:05;-3.70;99.90
17200;DHT22;8716;52.268;20.968;2024-01-07T13:43:33;-3.70;99.90
17200;DHT22;8716;52.268;20.968;2024-01-07T13:46:07;-3.80;99.90
17200;DHT22;8716;52.268;20.968;2024-01-07T13:48:48;-3.80;99.90
17200;DHT22;8716;52.268;20.968;2024-01-07T13:51:17;-3.90;99.90
17200;DHT22;8716;52.268;20.968;2024-01-07T13:53:47;-3.90;99.90
17200;DHT22;8716;52.268;20.968;2024-01-07T13:56:19;-4.00;99.90
17200;DHT22;8716;52.268;20.968;2024-01-07T13:58:47;-4.00;99.90
17200;DHT22;8716;52.268;20.968;2024-01-07T14:01:21;-3.90;99.90
17200;DHT22;8716;52.268;20.968;2024-01-07T14:03:49;-4.00;99.90
17200;DHT22;8716;52.268;20.968;2024-01-07T14:06:19;-4.00;99.90
17200;DHT22;8716;52.268;20.968;2024-01-07T14:08:48;-4.00;99.90
17200;DHT22;8716;52.268;20.968;2024-01-07T14:11:16;-4.00;99.90
17200;DHT22;8716;52.268;20.968;2024-01-07T14:13:45;-4.00;99.90
17200;DHT22;8716;52.268;20.968;2024-01-07T14:16:13;-4.10;99.90
17200;DHT22;8716;52.268;20.968;2024-01-07T14:18:43;-4.00;99.90
17200;DHT22;8716;52.268;20.968;2024-01-07T14:21:13;-4.10;99.90
17200;DHT22;8716;52.268;20.968;2024-01-07T14:23:41;-4.20;99.90
17200;DHT22;8716;52.268;20.968;2024-01-07T14:26:10;-4.20;99.90
17200;DHT22;8716;52.268;20.968;2024-01-07T14:28:38;-4.20;99.90
17200;DHT22;8716;52.268;20.968;2024-01-07T14:31:09;-4.30;99.90
17200;DHT22;8716;52.268;20.968;2024-01-07T14:33:40;-4.30;99.90
17200;DHT22;8716;52.268;20.968;2024-01-07T14:36:10;-4.30;99.90
17200;DHT22;8716;52.268;20.968;2024-01-07T14:38:43;-4.40;99.90
17200;DHT22;8716;52.268;20.968;2024-01-07T14:41:13;-4.40;99.90
17200;DHT22;8716;52.268;20.968;2024-01-07T14:43:41;-4.50;99.90
17200;DHT22;8716;52.268;20.968;2024-01-07T14:46:12;-4.40;99.90
17200;DHT22;8716;52.268;20.968;2024-01-07T14:48:40;-4.50;99.90
17200;DHT22;8716;52.268;20.968;2024-01-07T14:51:10;-4.50;99.90
17200;DHT22;8716;52.268;20.968;2024-01-07T14:53:39;-4.50;99.90
17200;DHT22;8716;52.268;20.968;2024-01-07T14:56:07;-4.50;99.90
17200;DHT22;8716;52.268;20.968;2024-01-07T14:58:35;-4.40;99.90
17200;DHT22;8716;52.268;20.968;2024-01-07T15:01:04;-4.50;99.90
17200;DHT22;8716;52.268;20.968;2024-01-07T15:03:32;-4.60;99.90
17200;DHT22;8716;52.268;20.968;2024-01-07T15:06:01;-4.60;99.90
17200;DHT22;8716;52.268;20.968;2024-01-07T15:08:31;-4.60;99.90
17200;DHT22;8716;52.268;20.968;2024-01-07T15:10:59;-4.60;99.90
17200;DHT22;8716;52.268;20.968;2024-01-07T15:13:28;-4.70;99.90
17200;DHT22;8716;52.268;20.968;2024-01-07T15:15:57;-4.60;99.90
17200;DHT22;8716;52.268;20.968;2024-01-07T15:18:26;-4.60;99.90
17200;DHT22;8716;52.268;20.968;2024-01-07T15:20:54;-4.70;99.90
17200;DHT22;8716;52.268;20.968;2024-01-07T15:23:23;-4.80;99.90
17200;DHT22;8716;52.268;20.968;2024-01-07T15:25:52;-4.90;99.90
17200;DHT22;8716;52.268;20.968;2024-01-07T15:28:20;-4.90;99.90
17200;DHT22;8716;52.268;20.968;2024-01-07T15:30:49;-5.00;99.90
17200;DHT22;8716;52.268;20.968;2024-01-07T15:33:20;-5.00;99.90
17200;DHT22;8716;52.268;20.968;2024-01-07T15:35:49;-5.10;99.90
17200;DHT22;8716;52.268;20.968;2024-01-07T15:38:18;-5.10;99.90
17200;DHT22;8716;52.268;20.968;2024-01-07T15:40:46;-5.10;99.90
17200;DHT22;8716;52.268;20.968;2024-01-07T15:43:16;-5.10;99.90